Portada
METAR-TAF:

METAR-TAF

Aeroports :

Marília, São Paulo, Brasil

latitud: 22-11-44S, longitud: 049-55-37W, altitud: 647 m

Observació

L'informe es va fer fa 3 hores i 1 minuts, a les 19:00 UTC
Vent 10 kt del Est/Nord-Est
Temperatura 26°C
Humitat 48%
Pressió 1020 hPa
Visibilitat 10 km o més
sense núvols per sota de 1500 mi sense presència de cumulonimbus.

METAR: SBML 231900Z 06010KT CAVOK 26/14 Q1020

Hora: 19:01 (22:01 UTC)


TAF: manca

Observacions i pronòstics meteorològics de més de 4000 aeroports (METAR i TAF).

Les estacions disponibles són els punts grocs i vermells al mapa.

Posi el ratolí al punt desitjat per veure el nom de l'estació.

Feu clic per veure les observacions i els pronòstics meteorològics.

Per canviar el mapa: feu clic els botons verds amb una creu de color negre per apropar; al botó verd amb un guió per allunyar la imatge; o en les fletxes verdes per a mapes adjacents.


METAR-TAF: